sensor_id;sensor_type;location;lat;lon;timestamp;temperature;humidity
6752;DHT22;3413;47.680;9.166;2023-07-31T00:01:08;21.30;72.60
6752;DHT22;3413;47.680;9.166;2023-07-31T00:06:10;21.10;72.70
6752;DHT22;3413;47.680;9.166;2023-07-31T00:11:12;21.10;73.50
6752;DHT22;3413;47.680;9.166;2023-07-31T00:16:14;21.10;72.80
6752;DHT22;3413;47.680;9.166;2023-07-31T00:21:16;21.10;72.70
6752;DHT22;3413;47.680;9.166;2023-07-31T00:26:21;21.00;72.70
6752;DHT22;3413;47.680;9.166;2023-07-31T00:31:23;20.90;72.70
6752;DHT22;3413;47.680;9.166;2023-07-31T00:36:26;20.90;72.80
6752;DHT22;3413;47.680;9.166;2023-07-31T00:41:28;20.80;72.80
6752;DHT22;3413;47.680;9.166;2023-07-31T00:46:30;20.60;73.10
6752;DHT22;3413;47.680;9.166;2023-07-31T00:51:32;20.50;73.20
6752;DHT22;3413;47.680;9.166;2023-07-31T00:56:34;20.40;73.20
6752;DHT22;3413;47.680;9.166;2023-07-31T01:01:40;20.40;73.20
6752;DHT22;3413;47.680;9.166;2023-07-31T01:07:38;20.30;73.20
6752;DHT22;3413;47.680;9.166;2023-07-31T01:12:19;20.30;73.40
6752;DHT22;3413;47.680;9.166;2023-07-31T01:17:29;20.20;73.20
6752;DHT22;3413;47.680;9.166;2023-07-31T01:28:03;20.20;73.40
6752;DHT22;3413;47.680;9.166;2023-07-31T01:33:05;20.20;73.40
6752;DHT22;3413;47.680;9.166;2023-07-31T01:38:09;20.10;73.30
6752;DHT22;3413;47.680;9.166;2023-07-31T01:43:12;20.10;73.40
6752;DHT22;3413;47.680;9.166;2023-07-31T01:48:14;20.10;74.10
6752;DHT22;3413;47.680;9.166;2023-07-31T01:53:16;20.10;73.50
6752;DHT22;3413;47.680;9.166;2023-07-31T01:58:18;20.00;73.60
6752;DHT22;3413;47.680;9.166;2023-07-31T02:03:21;20.10;73.80
6752;DHT22;3413;47.680;9.166;2023-07-31T02:08:24;20.10;73.80
6752;DHT22;3413;47.680;9.166;2023-07-31T02:13:27;20.10;73.70
6752;DHT22;3413;47.680;9.166;2023-07-31T02:18:29;20.10;73.80
6752;DHT22;3413;47.680;9.166;2023-07-31T02:23:31;20.00;73.80
6752;DHT22;3413;47.680;9.166;2023-07-31T02:28:33;19.90;73.90
6752;DHT22;3413;47.680;9.166;2023-07-31T02:33:38;19.90;73.90
6752;DHT22;3413;47.680;9.166;2023-07-31T02:38:41;20.10;74.20
6752;DHT22;3413;47.680;9.166;2023-07-31T02:43:42;20.00;74.00
6752;DHT22;3413;47.680;9.166;2023-07-31T02:48:47;20.00;74.10
6752;DHT22;3413;47.680;9.166;2023-07-31T02:53:49;20.00;74.10
6752;DHT22;3413;47.680;9.166;2023-07-31T02:58:51;19.90;74.30
6752;DHT22;3413;47.680;9.166;2023-07-31T03:03:53;19.80;74.30
6752;DHT22;3413;47.680;9.166;2023-07-31T03:09:01;19.80;74.40
6752;DHT22;3413;47.680;9.166;2023-07-31T03:14:03;19.70;74.30
6752;DHT22;3413;47.680;9.166;2023-07-31T03:19:05;19.80;74.40
6752;DHT22;3413;47.680;9.166;2023-07-31T03:24:07;19.70;74.30
6752;DHT22;3413;47.680;9.166;2023-07-31T03:29:09;19.80;74.50
6752;DHT22;3413;47.680;9.166;2023-07-31T03:34:11;19.80;74.70
6752;DHT22;3413;47.680;9.166;2023-07-31T03:39:13;19.80;74.80
6752;DHT22;3413;47.680;9.166;2023-07-31T03:44:15;19.80;74.90
6752;DHT22;3413;47.680;9.166;2023-07-31T03:49:17;19.80;74.90
6752;DHT22;3413;47.680;9.166;2023-07-31T03:54:20;19.70;74.80
6752;DHT22;3413;47.680;9.166;2023-07-31T03:59:22;19.70;74.90
6752;DHT22;3413;47.680;9.166;2023-07-31T04:04:24;19.60;74.90
6752;DHT22;3413;47.680;9.166;2023-07-31T04:09:26;19.60;75.10
6752;DHT22;3413;47.680;9.166;2023-07-31T04:14:28;19.60;75.20
6752;DHT22;3413;47.680;9.166;2023-07-31T04:19:30;19.50;75.30
6752;DHT22;3413;47.680;9.166;2023-07-31T04:24:32;19.60;75.40
6752;DHT22;3413;47.680;9.166;2023-07-31T04:29:34;19.60;75.40
6752;DHT22;3413;47.680;9.166;2023-07-31T04:34:36;19.70;75.60
6752;DHT22;3413;47.680;9.166;2023-07-31T04:39:39;19.80;75.60
6752;DHT22;3413;47.680;9.166;2023-07-31T04:44:41;19.90;75.70
6752;DHT22;3413;47.680;9.166;2023-07-31T04:49:42;20.10;76.00
6752;DHT22;3413;47.680;9.166;2023-07-31T04:54:44;20.00;75.80
6752;DHT22;3413;47.680;9.166;2023-07-31T04:59:46;20.20;76.00
6752;DHT22;3413;47.680;9.166;2023-07-31T05:04:50;20.30;76.10
6752;DHT22;3413;47.680;9.166;2023-07-31T05:09:52;20.40;76.10
6752;DHT22;3413;47.680;9.166;2023-07-31T05:14:57;20.50;76.20
6752;DHT22;3413;47.680;9.166;2023-07-31T05:19:59;20.60;76.10
6752;DHT22;3413;47.680;9.166;2023-07-31T05:25:01;20.70;76.10
6752;DHT22;3413;47.680;9.166;2023-07-31T05:30:04;20.80;76.30
6752;DHT22;3413;47.680;9.166;2023-07-31T05:35:06;20.90;76.30
6752;DHT22;3413;47.680;9.166;2023-07-31T05:40:09;21.00;76.20
6752;DHT22;3413;47.680;9.166;2023-07-31T05:45:11;21.00;76.00
6752;DHT22;3413;47.680;9.166;2023-07-31T05:50:13;21.00;75.90
6752;DHT22;3413;47.680;9.166;2023-07-31T05:55:16;21.00;75.90
6752;DHT22;3413;47.680;9.166;2023-07-31T06:00:18;21.00;75.90
6752;DHT22;3413;47.680;9.166;2023-07-31T06:05:20;21.00;75.70
6752;DHT22;3413;47.680;9.166;2023-07-31T06:10:22;21.00;75.70
6752;DHT22;3413;47.680;9.166;2023-07-31T06:15:24;20.90;75.70
6752;DHT22;3413;47.680;9.166;2023-07-31T06:20:26;20.90;75.70
6752;DHT22;3413;47.680;9.166;2023-07-31T06:25:28;21.00;75.80
6752;DHT22;3413;47.680;9.166;2023-07-31T06:30:30;21.00;75.80
6752;DHT22;3413;47.680;9.166;2023-07-31T06:35:32;21.10;76.00
6752;DHT22;3413;47.680;9.166;2023-07-31T06:40:34;21.20;75.90
6752;DHT22;3413;47.680;9.166;2023-07-31T06:45:36;21.20;75.90
6752;DHT22;3413;47.680;9.166;2023-07-31T06:50:39;21.30;75.90
6752;DHT22;3413;47.680;9.166;2023-07-31T06:55:41;21.40;75.90
6752;DHT22;3413;47.680;9.166;2023-07-31T07:00:43;21.50;76.00
6752;DHT22;3413;47.680;9.166;2023-07-31T07:05:46;21.50;76.00
6752;DHT22;3413;47.680;9.166;2023-07-31T07:10:48;21.50;76.10
6752;DHT22;3413;47.680;9.166;2023-07-31T07:15:50;21.60;76.20
6752;DHT22;3413;47.680;9.166;2023-07-31T07:20:54;21.60;76.00
6752;DHT22;3413;47.680;9.166;2023-07-31T07:25:55;21.60;76.20
6752;DHT22;3413;47.680;9.166;2023-07-31T07:30:57;21.70;76.20
6752;DHT22;3413;47.680;9.166;2023-07-31T07:36:01;21.70;76.10
6752;DHT22;3413;47.680;9.166;2023-07-31T07:41:04;21.70;76.90
6752;DHT22;3413;47.680;9.166;2023-07-31T07:46:06;21.80;76.20
6752;DHT22;3413;47.680;9.166;2023-07-31T07:51:08;22.00;76.30
6752;DHT22;3413;47.680;9.166;2023-07-31T07:56:09;22.10;76.40
6752;DHT22;3413;47.680;9.166;2023-07-31T08:01:11;22.10;76.20
6752;DHT22;3413;47.680;9.166;2023-07-31T08:06:14;22.20;76.10
6752;DHT22;3413;47.680;9.166;2023-07-31T08:11:16;22.30;76.30
6752;DHT22;3413;47.680;9.166;2023-07-31T08:16:18;22.40;76.40
6752;DHT22;3413;47.680;9.166;2023-07-31T08:21:21;22.60;76.40
6752;DHT22;3413;47.680;9.166;2023-07-31T08:26:23;22.70;76.30
6752;DHT22;3413;47.680;9.166;2023-07-31T08:31:25;22.90;76.40
6752;DHT22;3413;47.680;9.166;2023-07-31T08:36:28;23.00;76.60
6752;DHT22;3413;47.680;9.166;2023-07-31T08:41:31;23.20;76.60
6752;DHT22;3413;47.680;9.166;2023-07-31T08:46:34;23.20;76.50
6752;DHT22;3413;47.680;9.166;2023-07-31T08:51:36;23.40;76.80
6752;DHT22;3413;47.680;9.166;2023-07-31T08:56:39;23.60;76.90
6752;DHT22;3413;47.680;9.166;2023-07-31T09:01:45;23.70;76.80
6752;DHT22;3413;47.680;9.166;2023-07-31T09:06:55;23.90;76.70
6752;DHT22;3413;47.680;9.166;2023-07-31T09:11:59;24.00;76.80
6752;DHT22;3413;47.680;9.166;2023-07-31T09:17:01;24.10;77.00
6752;DHT22;3413;47.680;9.166;2023-07-31T09:22:07;24.30;76.90
6752;DHT22;3413;47.680;9.166;2023-07-31T09:27:09;24.40;76.80
6752;DHT22;3413;47.680;9.166;2023-07-31T09:32:17;24.60;76.80
6752;DHT22;3413;47.680;9.166;2023-07-31T09:37:19;24.70;76.80
6752;DHT22;3413;47.680;9.166;2023-07-31T09:42:26;24.70;76.50
6752;DHT22;3413;47.680;9.166;2023-07-31T09:47:28;24.80;76.60
6752;DHT22;3413;47.680;9.166;2023-07-31T09:52:32;24.90;76.80
6752;DHT22;3413;47.680;9.166;2023-07-31T09:57:36;25.10;76.70
6752;DHT22;3413;47.680;9.166;2023-07-31T10:02:39;25.20;76.60
6752;DHT22;3413;47.680;9.166;2023-07-31T10:07:45;25.30;76.50
6752;DHT22;3413;47.680;9.166;2023-07-31T10:12:49;25.40;76.40
6752;DHT22;3413;47.680;9.166;2023-07-31T10:17:51;25.60;76.60
6752;DHT22;3413;47.680;9.166;2023-07-31T10:22:55;25.60;76.30
6752;DHT22;3413;47.680;9.166;2023-07-31T10:27:58;25.80;76.20
6752;DHT22;3413;47.680;9.166;2023-07-31T10:33:01;25.80;76.10
6752;DHT22;3413;47.680;9.166;2023-07-31T10:38:11;26.00;76.20
6752;DHT22;3413;47.680;9.166;2023-07-31T10:43:26;26.20;76.20
6752;DHT22;3413;47.680;9.166;2023-07-31T10:48:33;26.50;76.00
6752;DHT22;3413;47.680;9.166;2023-07-31T10:53:36;26.50;75.70
6752;DHT22;3413;47.680;9.166;2023-07-31T10:58:38;26.70;76.00
6752;DHT22;3413;47.680;9.166;2023-07-31T11:03:46;26.90;76.00
6752;DHT22;3413;47.680;9.166;2023-07-31T11:08:50;26.90;76.00
6752;DHT22;3413;47.680;9.166;2023-07-31T11:13:53;27.10;75.90
6752;DHT22;3413;47.680;9.166;2023-07-31T11:18:55;27.10;75.70
6752;DHT22;3413;47.680;9.166;2023-07-31T11:23:58;27.30;75.80
6752;DHT22;3413;47.680;9.166;2023-07-31T11:29:00;27.40;75.70
6752;DHT22;3413;47.680;9.166;2023-07-31T11:34:06;27.50;75.50
6752;DHT22;3413;47.680;9.166;2023-07-31T11:39:09;27.40;75.30
6752;DHT22;3413;47.680;9.166;2023-07-31T11:44:11;27.40;75.30
6752;DHT22;3413;47.680;9.166;2023-07-31T11:49:29;27.50;75.90
6752;DHT22;3413;47.680;9.166;2023-07-31T11:54:31;27.60;75.20
6752;DHT22;3413;47.680;9.166;2023-07-31T11:59:34;27.70;75.60
6752;DHT22;3413;47.680;9.166;2023-07-31T12:04:36;27.80;74.80
6752;DHT22;3413;47.680;9.166;2023-07-31T12:09:38;27.90;74.60
6752;DHT22;3413;47.680;9.166;2023-07-31T12:15:00;27.80;74.40
6752;DHT22;3413;47.680;9.166;2023-07-31T12:20:05;27.80;74.40
6752;DHT22;3413;47.680;9.166;2023-07-31T12:25:15;28.00;74.40
6752;DHT22;3413;47.680;9.166;2023-07-31T12:30:32;28.10;74.30
6752;DHT22;3413;47.680;9.166;2023-07-31T12:35:45;28.30;74.30
6752;DHT22;3413;47.680;9.166;2023-07-31T12:40:47;28.40;74.30
6752;DHT22;3413;47.680;9.166;2023-07-31T12:45:49;28.50;74.20
6752;DHT22;3413;47.680;9.166;2023-07-31T12:50:51;28.50;73.90
6752;DHT22;3413;47.680;9.166;2023-07-31T12:55:54;28.60;73.90
6752;DHT22;3413;47.680;9.166;2023-07-31T13:00:55;28.60;73.90
6752;DHT22;3413;47.680;9.166;2023-07-31T13:05:58;28.80;74.00
6752;DHT22;3413;47.680;9.166;2023-07-31T13:11:00;28.90;73.70
6752;DHT22;3413;47.680;9.166;2023-07-31T13:16:02;28.90;73.80
6752;DHT22;3413;47.680;9.166;2023-07-31T13:21:04;29.10;73.80
6752;DHT22;3413;47.680;9.166;2023-07-31T13:26:06;29.10;73.70
6752;DHT22;3413;47.680;9.166;2023-07-31T13:31:08;29.30;73.80
6752;DHT22;3413;47.680;9.166;2023-07-31T13:36:10;29.50;73.70
6752;DHT22;3413;47.680;9.166;2023-07-31T13:41:13;29.70;73.80
6752;DHT22;3413;47.680;9.166;2023-07-31T13:46:15;30.00;73.60
6752;DHT22;3413;47.680;9.166;2023-07-31T13:51:17;30.00;73.40
6752;DHT22;3413;47.680;9.166;2023-07-31T13:56:19;30.00;73.30
6752;DHT22;3413;47.680;9.166;2023-07-31T14:01:21;29.90;73.20
6752;DHT22;3413;47.680;9.166;2023-07-31T14:06:23;29.70;73.00
6752;DHT22;3413;47.680;9.166;2023-07-31T14:11:26;29.70;73.00
6752;DHT22;3413;47.680;9.166;2023-07-31T14:16:45;29.70;73.70
6752;DHT22;3413;47.680;9.166;2023-07-31T14:21:48;29.80;72.70
6752;DHT22;3413;47.680;9.166;2023-07-31T14:27:21;29.70;72.50
6752;DHT22;3413;47.680;9.166;2023-07-31T14:32:28;29.70;72.10
6752;DHT22;3413;47.680;9.166;2023-07-31T14:37:43;29.70;72.10
6752;DHT22;3413;47.680;9.166;2023-07-31T14:42:54;29.80;72.40
6752;DHT22;3413;47.680;9.166;2023-07-31T14:48:02;29.80;71.90
6752;DHT22;3413;47.680;9.166;2023-07-31T14:53:05;29.60;71.90
6752;DHT22;3413;47.680;9.166;2023-07-31T14:58:07;29.50;71.80
6752;DHT22;3413;47.680;9.166;2023-07-31T15:03:09;29.60;71.70
6752;DHT22;3413;47.680;9.166;2023-07-31T15:08:11;29.70;71.60
6752;DHT22;3413;47.680;9.166;2023-07-31T15:13:14;29.70;71.70
6752;DHT22;3413;47.680;9.166;2023-07-31T15:18:19;29.70;71.60
6752;DHT22;3413;47.680;9.166;2023-07-31T15:23:21;29.70;71.80
6752;DHT22;3413;47.680;9.166;2023-07-31T15:28:23;29.80;71.90
6752;DHT22;3413;47.680;9.166;2023-07-31T15:33:25;29.80;71.90
6752;DHT22;3413;47.680;9.166;2023-07-31T15:38:27;29.80;72.40
6752;DHT22;3413;47.680;9.166;2023-07-31T15:50:24;29.50;71.40
6752;DHT22;3413;47.680;9.166;2023-07-31T16:09:55;29.60;71.60
6752;DHT22;3413;47.680;9.166;2023-07-31T16:28:59;29.70;71.80
6752;DHT22;3413;47.680;9.166;2023-07-31T16:35:30;29.70;71.70
6752;DHT22;3413;47.680;9.166;2023-07-31T16:40:42;29.80;71.90
6752;DHT22;3413;47.680;9.166;2023-07-31T16:47:09;29.80;71.80
6752;DHT22;3413;47.680;9.166;2023-07-31T16:52:36;29.80;71.50
6752;DHT22;3413;47.680;9.166;2023-07-31T16:57:39;29.80;71.50
6752;DHT22;3413;47.680;9.166;2023-07-31T17:02:58;29.80;71.60
6752;DHT22;3413;47.680;9.166;2023-07-31T17:08:00;29.80;71.80
6752;DHT22;3413;47.680;9.166;2023-07-31T17:13:02;29.80;71.80
6752;DHT22;3413;47.680;9.166;2023-07-31T17:18:04;29.60;71.60
6752;DHT22;3413;47.680;9.166;2023-07-31T17:23:06;29.40;71.50
6752;DHT22;3413;47.680;9.166;2023-07-31T17:28:09;29.40;71.50
6752;DHT22;3413;47.680;9.166;2023-07-31T17:33:11;29.20;71.50
6752;DHT22;3413;47.680;9.166;2023-07-31T17:38:13;29.20;71.50
6752;DHT22;3413;47.680;9.166;2023-07-31T17:43:15;29.10;71.40
6752;DHT22;3413;47.680;9.166;2023-07-31T17:48:17;29.00;71.20
6752;DHT22;3413;47.680;9.166;2023-07-31T17:53:19;29.10;71.20
6752;DHT22;3413;47.680;9.166;2023-07-31T17:58:21;29.10;71.20
6752;DHT22;3413;47.680;9.166;2023-07-31T18:03:23;29.00;71.00
6752;DHT22;3413;47.680;9.166;2023-07-31T18:08:27;29.00;71.20
6752;DHT22;3413;47.680;9.166;2023-07-31T18:13:29;29.00;71.10
6752;DHT22;3413;47.680;9.166;2023-07-31T18:18:32;29.00;71.10
6752;DHT22;3413;47.680;9.166;2023-07-31T18:23:33;29.00;71.10
6752;DHT22;3413;47.680;9.166;2023-07-31T18:28:35;28.90;71.10
6752;DHT22;3413;47.680;9.166;2023-07-31T18:33:37;29.00;71.20
6752;DHT22;3413;47.680;9.166;2023-07-31T18:38:40;28.90;71.20
6752;DHT22;3413;47.680;9.166;2023-07-31T18:43:42;29.00;71.20
6752;DHT22;3413;47.680;9.166;2023-07-31T18:48:44;29.00;71.20
6752;DHT22;3413;47.680;9.166;2023-07-31T18:53:46;28.90;71.20
6752;DHT22;3413;47.680;9.166;2023-07-31T18:58:48;28.90;71.30
6752;DHT22;3413;47.680;9.166;2023-07-31T19:03:52;28.90;71.30
6752;DHT22;3413;47.680;9.166;2023-07-31T19:08:54;28.90;71.40
6752;DHT22;3413;47.680;9.166;2023-07-31T19:13:56;28.90;71.40
6752;DHT22;3413;47.680;9.166;2023-07-31T19:18:58;28.80;71.50
6752;DHT22;3413;47.680;9.166;2023-07-31T19:24:00;28.80;71.50
6752;DHT22;3413;47.680;9.166;2023-07-31T19:29:02;28.70;71.50
6752;DHT22;3413;47.680;9.166;2023-07-31T19:34:04;28.70;71.50
6752;DHT22;3413;47.680;9.166;2023-07-31T19:39:06;28.60;71.50
6752;DHT22;3413;47.680;9.166;2023-07-31T19:44:08;28.50;71.70
6752;DHT22;3413;47.680;9.166;2023-07-31T19:49:12;28.30;71.80
6752;DHT22;3413;47.680;9.166;2023-07-31T19:54:15;28.30;71.90
6752;DHT22;3413;47.680;9.166;2023-07-31T19:59:18;28.10;71.90
6752;DHT22;3413;47.680;9.166;2023-07-31T20:04:20;28.10;72.70
6752;DHT22;3413;47.680;9.166;2023-07-31T20:09:22;27.80;72.20
6752;DHT22;3413;47.680;9.166;2023-07-31T20:14:25;27.50;72.30
6752;DHT22;3413;47.680;9.166;2023-07-31T20:19:27;27.50;72.30
6752;DHT22;3413;47.680;9.166;2023-07-31T20:24:29;27.50;72.40
6752;DHT22;3413;47.680;9.166;2023-07-31T20:29:31;27.40;72.40
6752;DHT22;3413;47.680;9.166;2023-07-31T20:34:33;27.20;72.40
6752;DHT22;3413;47.680;9.166;2023-07-31T20:39:35;27.20;72.60
6752;DHT22;3413;47.680;9.166;2023-07-31T20:44:37;27.20;72.60
6752;DHT22;3413;47.680;9.166;2023-07-31T20:49:39;27.10;72.60
6752;DHT22;3413;47.680;9.166;2023-07-31T20:54:41;27.10;72.60
6752;DHT22;3413;47.680;9.166;2023-07-31T20:59:43;27.10;73.30
6752;DHT22;3413;47.680;9.166;2023-07-31T21:04:45;27.10;72.60
6752;DHT22;3413;47.680;9.166;2023-07-31T21:09:47;27.00;72.60
6752;DHT22;3413;47.680;9.166;2023-07-31T21:14:49;26.90;72.70
6752;DHT22;3413;47.680;9.166;2023-07-31T21:19:54;26.60;73.10
6752;DHT22;3413;47.680;9.166;2023-07-31T21:24:56;26.60;73.00
6752;DHT22;3413;47.680;9.166;2023-07-31T21:29:58;26.70;73.70
6752;DHT22;3413;47.680;9.166;2023-07-31T21:35:01;26.60;73.00
6752;DHT22;3413;47.680;9.166;2023-07-31T21:40:04;26.60;73.00
6752;DHT22;3413;47.680;9.166;2023-07-31T21:45:06;26.70;73.10
6752;DHT22;3413;47.680;9.166;2023-07-31T21:50:09;26.70;73.00
6752;DHT22;3413;47.680;9.166;2023-07-31T21:55:12;26.70;73.00
6752;DHT22;3413;47.680;9.166;2023-07-31T22:00:14;26.70;72.80
6752;DHT22;3413;47.680;9.166;2023-07-31T22:05:16;26.50;72.90
6752;DHT22;3413;47.680;9.166;2023-07-31T22:10:18;26.50;73.00
6752;DHT22;3413;47.680;9.166;2023-07-31T22:15:20;26.30;73.10
6752;DHT22;3413;47.680;9.166;2023-07-31T22:20:22;26.30;73.20
6752;DHT22;3413;47.680;9.166;2023-07-31T22:25:23;26.20;73.30
6752;DHT22;3413;47.680;9.166;2023-07-31T22:30:25;26.10;73.50
6752;DHT22;3413;47.680;9.166;2023-07-31T22:35:27;26.10;73.50
6752;DHT22;3413;47.680;9.166;2023-07-31T22:40:29;26.10;73.40
6752;DHT22;3413;47.680;9.166;2023-07-31T22:45:31;26.10;73.40
6752;DHT22;3413;47.680;9.166;2023-07-31T22:50:33;26.20;73.40
6752;DHT22;3413;47.680;9.166;2023-07-31T22:55:35;26.20;73.40
6752;DHT22;3413;47.680;9.166;2023-07-31T23:00:37;26.10;73.50
6752;DHT22;3413;47.680;9.166;2023-07-31T23:05:39;26.20;73.50
6752;DHT22;3413;47.680;9.166;2023-07-31T23:10:41;26.20;73.50
6752;DHT22;3413;47.680;9.166;2023-07-31T23:15:49;26.10;73.60
6752;DHT22;3413;47.680;9.166;2023-07-31T23:20:52;26.00;73.70
6752;DHT22;3413;47.680;9.166;2023-07-31T23:25:55;25.70;73.90
6752;DHT22;3413;47.680;9.166;2023-07-31T23:31:03;25.60;74.00
6752;DHT22;3413;47.680;9.166;2023-07-31T23:36:12;25.40;74.00
6752;DHT22;3413;47.680;9.166;2023-07-31T23:41:37;25.40;74.20
6752;DHT22;3413;47.680;9.166;2023-07-31T23:47:11;25.30;74.10
6752;DHT22;3413;47.680;9.166;2023-07-31T23:52:52;25.10;74.40
6752;DHT22;3413;47.680;9.166;2023-07-31T23:59:01;25.10;74.30
